sensor_id;sensor_type;location;lat;lon;timestamp;temperature;humidity
52943;DHT22;38809;53.300;6.614;2023-04-29T00:01:48;9.10;99.90
52943;DHT22;38809;53.300;6.614;2023-04-29T00:04:15;8.80;99.90
52943;DHT22;38809;53.300;6.614;2023-04-29T00:06:40;8.80;99.90
52943;DHT22;38809;53.300;6.614;2023-04-29T00:09:06;8.50;99.90
52943;DHT22;38809;53.300;6.614;2023-04-29T00:11:31;8.50;99.90
52943;DHT22;38809;53.300;6.614;2023-04-29T00:13:57;8.80;99.90
52943;DHT22;38809;53.300;6.614;2023-04-29T00:16:23;9.30;99.90
52943;DHT22;38809;53.300;6.614;2023-04-29T00:18:49;8.60;99.90
52943;DHT22;38809;53.300;6.614;2023-04-29T00:21:14;8.60;99.90
52943;DHT22;38809;53.300;6.614;2023-04-29T00:23:40;8.60;99.90
52943;DHT22;38809;53.300;6.614;2023-04-29T00:26:06;8.90;99.90
52943;DHT22;38809;53.300;6.614;2023-04-29T00:28:32;8.60;99.90
52943;DHT22;38809;53.300;6.614;2023-04-29T00:30:57;8.90;99.90
52943;DHT22;38809;53.300;6.614;2023-04-29T00:33:23;8.60;99.90
52943;DHT22;38809;53.300;6.614;2023-04-29T00:35:49;8.50;99.90
52943;DHT22;38809;53.300;6.614;2023-04-29T00:38:15;8.40;99.90
52943;DHT22;38809;53.300;6.614;2023-04-29T00:40:41;8.70;99.90
52943;DHT22;38809;53.300;6.614;2023-04-29T00:43:08;8.70;99.90
52943;DHT22;38809;53.300;6.614;2023-04-29T00:45:33;8.50;99.90
52943;DHT22;38809;53.300;6.614;2023-04-29T00:47:59;8.50;99.90
52943;DHT22;38809;53.300;6.614;2023-04-29T00:50:24;8.70;99.90
52943;DHT22;38809;53.300;6.614;2023-04-29T00:52:50;8.40;99.90
52943;DHT22;38809;53.300;6.614;2023-04-29T00:55:17;8.40;99.90
52943;DHT22;38809;53.300;6.614;2023-04-29T00:57:44;8.70;99.90
52943;DHT22;38809;53.300;6.614;2023-04-29T01:00:12;8.70;99.90
52943;DHT22;38809;53.300;6.614;2023-04-29T01:02:40;8.60;99.90
52943;DHT22;38809;53.300;6.614;2023-04-29T01:05:06;8.50;99.90
52943;DHT22;38809;53.300;6.614;2023-04-29T01:07:39;8.50;99.90
52943;DHT22;38809;53.300;6.614;2023-04-29T01:10:14;8.80;99.90
52943;DHT22;38809;53.300;6.614;2023-04-29T01:13:13;8.40;99.90
52943;DHT22;38809;53.300;6.614;2023-04-29T01:16:02;8.50;99.90
52943;DHT22;38809;53.300;6.614;2023-04-29T01:18:38;8.40;99.90
52943;DHT22;38809;53.300;6.614;2023-04-29T01:21:05;8.40;99.90
52943;DHT22;38809;53.300;6.614;2023-04-29T01:23:31;8.50;99.90
52943;DHT22;38809;53.300;6.614;2023-04-29T01:25:57;8.30;99.90
52943;DHT22;38809;53.300;6.614;2023-04-29T01:29:12;8.20;99.90
52943;DHT22;38809;53.300;6.614;2023-04-29T01:32:03;8.20;99.90
52943;DHT22;38809;53.300;6.614;2023-04-29T01:37:25;8.10;99.90
52943;DHT22;38809;53.300;6.614;2023-04-29T01:40:18;8.30;99.90
52943;DHT22;38809;53.300;6.614;2023-04-29T01:42:50;8.10;99.90
52943;DHT22;38809;53.300;6.614;2023-04-29T01:45:20;8.00;99.90
52943;DHT22;38809;53.300;6.614;2023-04-29T01:47:48;8.00;99.90
52943;DHT22;38809;53.300;6.614;2023-04-29T01:50:15;8.00;99.90
52943;DHT22;38809;53.300;6.614;2023-04-29T01:52:40;7.80;99.90
52943;DHT22;38809;53.300;6.614;2023-04-29T01:55:06;7.70;99.90
52943;DHT22;38809;53.300;6.614;2023-04-29T01:57:32;7.80;99.90
52943;DHT22;38809;53.300;6.614;2023-04-29T01:59:58;7.80;99.90
52943;DHT22;38809;53.300;6.614;2023-04-29T02:02:24;8.10;99.90
52943;DHT22;38809;53.300;6.614;2023-04-29T02:04:50;8.10;99.90
52943;DHT22;38809;53.300;6.614;2023-04-29T02:07:16;8.20;99.90
52943;DHT22;38809;53.300;6.614;2023-04-29T02:09:42;8.20;99.90
52943;DHT22;38809;53.300;6.614;2023-04-29T02:12:07;8.00;99.90
52943;DHT22;38809;53.300;6.614;2023-04-29T02:14:33;8.10;99.90
52943;DHT22;38809;53.300;6.614;2023-04-29T02:16:59;7.90;99.90
52943;DHT22;38809;53.300;6.614;2023-04-29T02:19:25;8.20;99.90
52943;DHT22;38809;53.300;6.614;2023-04-29T02:21:50;8.30;99.90
52943;DHT22;38809;53.300;6.614;2023-04-29T02:24:16;8.00;99.90
52943;DHT22;38809;53.300;6.614;2023-04-29T02:26:42;8.10;99.90
52943;DHT22;38809;53.300;6.614;2023-04-29T02:29:07;8.40;99.90
52943;DHT22;38809;53.300;6.614;2023-04-29T02:31:33;8.40;99.90
52943;DHT22;38809;53.300;6.614;2023-04-29T02:33:59;8.10;99.90
52943;DHT22;38809;53.300;6.614;2023-04-29T02:36:25;8.30;99.90
52943;DHT22;38809;53.300;6.614;2023-04-29T02:38:51;8.10;99.90
52943;DHT22;38809;53.300;6.614;2023-04-29T02:41:19;8.40;99.90
52943;DHT22;38809;53.300;6.614;2023-04-29T02:43:46;8.00;99.90
52943;DHT22;38809;53.300;6.614;2023-04-29T02:46:13;8.20;99.90
52943;DHT22;38809;53.300;6.614;2023-04-29T02:48:39;8.20;99.90
52943;DHT22;38809;53.300;6.614;2023-04-29T02:51:05;8.50;99.90
52943;DHT22;38809;53.300;6.614;2023-04-29T02:53:31;8.10;99.90
52943;DHT22;38809;53.300;6.614;2023-04-29T02:55:57;8.20;99.90
52943;DHT22;38809;53.300;6.614;2023-04-29T02:58:22;8.10;99.90
52943;DHT22;38809;53.300;6.614;2023-04-29T03:00:48;8.20;99.90
52943;DHT22;38809;53.300;6.614;2023-04-29T03:03:14;8.20;99.90
52943;DHT22;38809;53.300;6.614;2023-04-29T03:05:40;8.20;99.90
52943;DHT22;38809;53.300;6.614;2023-04-29T03:08:05;8.20;99.90
52943;DHT22;38809;53.300;6.614;2023-04-29T03:10:32;8.40;99.90
52943;DHT22;38809;53.300;6.614;2023-04-29T03:12:57;8.60;99.90
52943;DHT22;38809;53.300;6.614;2023-04-29T03:15:23;8.60;99.90
52943;DHT22;38809;53.300;6.614;2023-04-29T03:17:49;8.50;99.90
52943;DHT22;38809;53.300;6.614;2023-04-29T03:20:14;8.20;99.90
52943;DHT22;38809;53.300;6.614;2023-04-29T03:22:40;8.50;99.90
52943;DHT22;38809;53.300;6.614;2023-04-29T03:25:06;8.50;99.90
52943;DHT22;38809;53.300;6.614;2023-04-29T03:27:32;8.30;99.90
52943;DHT22;38809;53.300;6.614;2023-04-29T03:29:57;8.50;99.90
52943;DHT22;38809;53.300;6.614;2023-04-29T03:32:23;10.00;99.90
52943;DHT22;38809;53.300;6.614;2023-04-29T03:34:49;8.60;99.90
52943;DHT22;38809;53.300;6.614;2023-04-29T03:37:14;8.50;99.90
52943;DHT22;38809;53.300;6.614;2023-04-29T03:39:41;8.50;99.90
52943;DHT22;38809;53.300;6.614;2023-04-29T03:42:07;8.50;99.90
52943;DHT22;38809;53.300;6.614;2023-04-29T03:44:33;8.40;99.90
52943;DHT22;38809;53.300;6.614;2023-04-29T03:46:58;8.60;99.90
52943;DHT22;38809;53.300;6.614;2023-04-29T03:49:25;8.30;99.90
52943;DHT22;38809;53.300;6.614;2023-04-29T03:51:50;8.40;99.90
52943;DHT22;38809;53.300;6.614;2023-04-29T03:54:16;8.40;99.90
52943;DHT22;38809;53.300;6.614;2023-04-29T03:56:42;8.30;99.90
52943;DHT22;38809;53.300;6.614;2023-04-29T03:59:08;8.60;99.90
52943;DHT22;38809;53.300;6.614;2023-04-29T04:01:33;8.50;99.90
52943;DHT22;38809;53.300;6.614;2023-04-29T04:03:59;8.50;99.90
52943;DHT22;38809;53.300;6.614;2023-04-29T04:06:25;8.50;99.90
52943;DHT22;38809;53.300;6.614;2023-04-29T04:08:51;8.50;99.90
52943;DHT22;38809;53.300;6.614;2023-04-29T04:11:17;8.30;99.90
52943;DHT22;38809;53.300;6.614;2023-04-29T04:13:42;8.60;99.90
52943;DHT22;38809;53.300;6.614;2023-04-29T04:16:09;8.40;99.90
52943;DHT22;38809;53.300;6.614;2023-04-29T04:18:36;8.60;99.90
52943;DHT22;38809;53.300;6.614;2023-04-29T04:21:05;8.30;99.90
52943;DHT22;38809;53.300;6.614;2023-04-29T04:23:31;8.30;99.90
52943;DHT22;38809;53.300;6.614;2023-04-29T04:25:57;8.30;99.90
52943;DHT22;38809;53.300;6.614;2023-04-29T04:28:22;8.40;99.90
52943;DHT22;38809;53.300;6.614;2023-04-29T04:30:48;8.60;99.90
52943;DHT22;38809;53.300;6.614;2023-04-29T04:33:14;8.40;99.90
52943;DHT22;38809;53.300;6.614;2023-04-29T04:35:40;8.60;99.90
52943;DHT22;38809;53.300;6.614;2023-04-29T04:38:06;8.50;99.90
52943;DHT22;38809;53.300;6.614;2023-04-29T04:40:32;8.60;99.90
52943;DHT22;38809;53.300;6.614;2023-04-29T04:42:57;8.40;99.90
52943;DHT22;38809;53.300;6.614;2023-04-29T04:45:23;8.40;99.90
52943;DHT22;38809;53.300;6.614;2023-04-29T04:47:49;8.70;99.90
52943;DHT22;38809;53.300;6.614;2023-04-29T04:50:14;8.40;99.90
52943;DHT22;38809;53.300;6.614;2023-04-29T04:52:40;8.50;99.90
52943;DHT22;38809;53.300;6.614;2023-04-29T04:55:07;8.40;99.90
52943;DHT22;38809;53.300;6.614;2023-04-29T04:57:33;8.60;99.90
52943;DHT22;38809;53.300;6.614;2023-04-29T04:59:58;8.60;99.90
52943;DHT22;38809;53.300;6.614;2023-04-29T05:02:25;8.60;99.90
52943;DHT22;38809;53.300;6.614;2023-04-29T05:04:51;8.60;99.90
52943;DHT22;38809;53.300;6.614;2023-04-29T05:07:17;8.40;99.90
52943;DHT22;38809;53.300;6.614;2023-04-29T05:09:42;8.50;99.90
52943;DHT22;38809;53.300;6.614;2023-04-29T05:12:08;8.70;99.90
52943;DHT22;38809;53.300;6.614;2023-04-29T05:14:34;8.70;99.90
52943;DHT22;38809;53.300;6.614;2023-04-29T05:16:59;8.70;99.90
52943;DHT22;38809;53.300;6.614;2023-04-29T05:19:25;8.50;99.90
52943;DHT22;38809;53.300;6.614;2023-04-29T05:21:51;8.70;99.90
52943;DHT22;38809;53.300;6.614;2023-04-29T05:24:17;8.80;99.90
52943;DHT22;38809;53.300;6.614;2023-04-29T05:26:43;8.60;99.90
52943;DHT22;38809;53.300;6.614;2023-04-29T05:29:09;8.80;99.90
52943;DHT22;38809;53.300;6.614;2023-04-29T05:31:35;8.80;99.90
52943;DHT22;38809;53.300;6.614;2023-04-29T05:34:01;8.70;99.90
52943;DHT22;38809;53.300;6.614;2023-04-29T05:36:27;8.70;99.90
52943;DHT22;38809;53.300;6.614;2023-04-29T05:38:53;8.70;99.90
52943;DHT22;38809;53.300;6.614;2023-04-29T05:41:19;8.80;99.90
52943;DHT22;38809;53.300;6.614;2023-04-29T05:43:45;8.80;99.90
52943;DHT22;38809;53.300;6.614;2023-04-29T05:46:10;8.90;99.90
52943;DHT22;38809;53.300;6.614;2023-04-29T05:48:36;9.10;99.90
52943;DHT22;38809;53.300;6.614;2023-04-29T05:51:02;9.00;99.90
52943;DHT22;38809;53.300;6.614;2023-04-29T05:53:28;9.00;99.90
52943;DHT22;38809;53.300;6.614;2023-04-29T05:55:53;9.10;99.90
52943;DHT22;38809;53.300;6.614;2023-04-29T05:58:19;9.10;99.90
52943;DHT22;38809;53.300;6.614;2023-04-29T06:00:45;9.30;99.90
52943;DHT22;38809;53.300;6.614;2023-04-29T06:03:11;9.30;99.90
52943;DHT22;38809;53.300;6.614;2023-04-29T06:05:36;9.30;99.90
52943;DHT22;38809;53.300;6.614;2023-04-29T06:08:03;9.20;99.90
52943;DHT22;38809;53.300;6.614;2023-04-29T06:10:30;9.40;99.90
52943;DHT22;38809;53.300;6.614;2023-04-29T06:12:56;9.40;99.90
52943;DHT22;38809;53.300;6.614;2023-04-29T06:15:22;9.60;99.90
52943;DHT22;38809;53.300;6.614;2023-04-29T06:17:47;9.60;99.90
52943;DHT22;38809;53.300;6.614;2023-04-29T06:20:13;9.80;99.90
52943;DHT22;38809;53.300;6.614;2023-04-29T06:22:39;9.80;99.90
52943;DHT22;38809;53.300;6.614;2023-04-29T06:25:05;10.10;99.90
52943;DHT22;38809;53.300;6.614;2023-04-29T06:27:31;10.10;99.90
52943;DHT22;38809;53.300;6.614;2023-04-29T06:29:56;10.90;99.90
52943;DHT22;38809;53.300;6.614;2023-04-29T06:32:23;9.90;99.90
52943;DHT22;38809;53.300;6.614;2023-04-29T06:34:49;10.00;99.90
52943;DHT22;38809;53.300;6.614;2023-04-29T06:37:15;10.20;99.90
52943;DHT22;38809;53.300;6.614;2023-04-29T06:39:41;10.30;99.90
52943;DHT22;38809;53.300;6.614;2023-04-29T06:42:07;10.20;99.90
52943;DHT22;38809;53.300;6.614;2023-04-29T06:44:32;10.30;99.90
52943;DHT22;38809;53.300;6.614;2023-04-29T06:46:58;10.40;99.90
52943;DHT22;38809;53.300;6.614;2023-04-29T06:49:24;10.40;99.90
52943;DHT22;38809;53.300;6.614;2023-04-29T06:51:50;10.90;99.90
52943;DHT22;38809;53.300;6.614;2023-04-29T06:54:15;11.00;99.90
52943;DHT22;38809;53.300;6.614;2023-04-29T06:56:41;11.40;99.90
52943;DHT22;38809;53.300;6.614;2023-04-29T06:59:07;11.00;99.90
52943;DHT22;38809;53.300;6.614;2023-04-29T07:01:33;11.50;99.90
52943;DHT22;38809;53.300;6.614;2023-04-29T07:03:59;11.10;99.90
52943;DHT22;38809;53.300;6.614;2023-04-29T07:06:24;11.10;99.90
52943;DHT22;38809;53.300;6.614;2023-04-29T07:08:50;11.20;99.90
52943;DHT22;38809;53.300;6.614;2023-04-29T07:11:16;11.10;99.90
52943;DHT22;38809;53.300;6.614;2023-04-29T07:13:42;11.20;99.90
52943;DHT22;38809;53.300;6.614;2023-04-29T07:16:17;11.40;99.90
52943;DHT22;38809;53.300;6.614;2023-04-29T07:18:44;11.30;99.90
52943;DHT22;38809;53.300;6.614;2023-04-29T07:21:10;11.30;99.90
52943;DHT22;38809;53.300;6.614;2023-04-29T07:23:36;11.40;99.90
52943;DHT22;38809;53.300;6.614;2023-04-29T07:26:09;11.80;99.90
52943;DHT22;38809;53.300;6.614;2023-04-29T07:28:35;11.60;99.90
52943;DHT22;38809;53.300;6.614;2023-04-29T07:31:00;11.50;99.90
52943;DHT22;38809;53.300;6.614;2023-04-29T07:33:26;11.40;99.90
52943;DHT22;38809;53.300;6.614;2023-04-29T07:35:52;11.40;99.90
52943;DHT22;38809;53.300;6.614;2023-04-29T07:38:17;11.30;99.90
52943;DHT22;38809;53.300;6.614;2023-04-29T07:40:43;11.40;99.90
52943;DHT22;38809;53.300;6.614;2023-04-29T07:43:09;11.50;99.90
52943;DHT22;38809;53.300;6.614;2023-04-29T07:45:35;11.80;99.90
52943;DHT22;38809;53.300;6.614;2023-04-29T07:48:01;12.00;99.90
52943;DHT22;38809;53.300;6.614;2023-04-29T07:50:26;11.70;99.90
52943;DHT22;38809;53.300;6.614;2023-04-29T07:52:52;11.80;99.90
52943;DHT22;38809;53.300;6.614;2023-04-29T07:55:19;11.80;99.90
52943;DHT22;38809;53.300;6.614;2023-04-29T07:57:45;11.90;99.90
52943;DHT22;38809;53.300;6.614;2023-04-29T08:00:11;11.90;99.90
52943;DHT22;38809;53.300;6.614;2023-04-29T08:02:37;12.40;99.90
52943;DHT22;38809;53.300;6.614;2023-04-29T08:05:03;12.00;99.90
52943;DHT22;38809;53.300;6.614;2023-04-29T08:07:28;11.90;99.90
52943;DHT22;38809;53.300;6.614;2023-04-29T08:09:54;12.00;99.90
52943;DHT22;38809;53.300;6.614;2023-04-29T08:12:20;11.90;99.90
52943;DHT22;38809;53.300;6.614;2023-04-29T08:14:45;12.50;99.90
52943;DHT22;38809;53.300;6.614;2023-04-29T08:17:11;12.10;99.90
52943;DHT22;38809;53.300;6.614;2023-04-29T08:19:37;12.50;99.90
52943;DHT22;38809;53.300;6.614;2023-04-29T08:22:02;12.60;99.90
52943;DHT22;38809;53.300;6.614;2023-04-29T08:24:28;12.50;99.90
52943;DHT22;38809;53.300;6.614;2023-04-29T08:26:54;12.40;99.90
52943;DHT22;38809;53.300;6.614;2023-04-29T08:29:20;12.20;99.90
52943;DHT22;38809;53.300;6.614;2023-04-29T08:31:46;12.30;99.90
52943;DHT22;38809;53.300;6.614;2023-04-29T08:34:11;12.10;99.90
52943;DHT22;38809;53.300;6.614;2023-04-29T08:36:37;12.50;99.90
52943;DHT22;38809;53.300;6.614;2023-04-29T08:39:03;12.80;99.90
52943;DHT22;38809;53.300;6.614;2023-04-29T08:41:31;12.70;99.90
52943;DHT22;38809;53.300;6.614;2023-04-29T08:43:59;12.70;99.90
52943;DHT22;38809;53.300;6.614;2023-04-29T08:46:25;13.00;99.90
52943;DHT22;38809;53.300;6.614;2023-04-29T08:48:51;12.80;99.90
52943;DHT22;38809;53.300;6.614;2023-04-29T08:51:17;12.60;99.90
52943;DHT22;38809;53.300;6.614;2023-04-29T08:53:43;12.80;99.90
52943;DHT22;38809;53.300;6.614;2023-04-29T08:56:15;11.80;99.90
52943;DHT22;38809;53.300;6.614;2023-04-29T08:58:46;12.80;99.90
52943;DHT22;38809;53.300;6.614;2023-04-29T09:01:14;12.80;99.90
52943;DHT22;38809;53.300;6.614;2023-04-29T09:03:48;12.60;99.90
52943;DHT22;38809;53.300;6.614;2023-04-29T09:06:14;12.60;99.90
52943;DHT22;38809;53.300;6.614;2023-04-29T09:08:41;12.70;99.90
52943;DHT22;38809;53.300;6.614;2023-04-29T09:11:10;12.50;99.90
52943;DHT22;38809;53.300;6.614;2023-04-29T09:13:37;12.50;99.90
52943;DHT22;38809;53.300;6.614;2023-04-29T09:16:03;12.80;99.90
52943;DHT22;38809;53.300;6.614;2023-04-29T09:21:14;12.80;99.90
52943;DHT22;38809;53.300;6.614;2023-04-29T09:23:40;12.80;99.90
52943;DHT22;38809;53.300;6.614;2023-04-29T09:26:05;13.10;99.90
52943;DHT22;38809;53.300;6.614;2023-04-29T09:28:31;13.20;99.90
52943;DHT22;38809;53.300;6.614;2023-04-29T09:30:58;13.30;99.90
52943;DHT22;38809;53.300;6.614;2023-04-29T09:33:24;13.30;99.90
52943;DHT22;38809;53.300;6.614;2023-04-29T09:35:53;13.40;99.90
52943;DHT22;38809;53.300;6.614;2023-04-29T09:38:19;13.80;99.90
52943;DHT22;38809;53.300;6.614;2023-04-29T09:40:45;13.40;99.90
52943;DHT22;38809;53.300;6.614;2023-04-29T09:43:13;13.10;99.90
52943;DHT22;38809;53.300;6.614;2023-04-29T09:45:42;13.50;99.90
52943;DHT22;38809;53.300;6.614;2023-04-29T09:48:09;13.60;99.90
52943;DHT22;38809;53.300;6.614;2023-04-29T09:50:36;13.00;99.90
52943;DHT22;38809;53.300;6.614;2023-04-29T09:53:03;13.30;99.90
52943;DHT22;38809;53.300;6.614;2023-04-29T09:55:28;13.00;99.90
52943;DHT22;38809;53.300;6.614;2023-04-29T09:57:54;13.00;99.90
52943;DHT22;38809;53.300;6.614;2023-04-29T10:00:20;13.50;99.90
52943;DHT22;38809;53.300;6.614;2023-04-29T10:02:47;13.70;99.90
52943;DHT22;38809;53.300;6.614;2023-04-29T10:05:14;13.40;99.90
52943;DHT22;38809;53.300;6.614;2023-04-29T10:07:41;13.50;99.90
52943;DHT22;38809;53.300;6.614;2023-04-29T10:10:07;13.20;99.90
52943;DHT22;38809;53.300;6.614;2023-04-29T10:12:35;13.00;99.90
52943;DHT22;38809;53.300;6.614;2023-04-29T10:17:51;14.00;99.90
52943;DHT22;38809;53.300;6.614;2023-04-29T10:20:23;13.90;99.90
52943;DHT22;38809;53.300;6.614;2023-04-29T10:22:51;13.50;99.90
52943;DHT22;38809;53.300;6.614;2023-04-29T10:25:21;13.40;99.90
52943;DHT22;38809;53.300;6.614;2023-04-29T10:27:48;13.60;99.90
52943;DHT22;38809;53.300;6.614;2023-04-29T10:30:17;14.00;99.90
52943;DHT22;38809;53.300;6.614;2023-04-29T10:32:45;14.00;99.90
52943;DHT22;38809;53.300;6.614;2023-04-29T10:35:13;14.40;99.90
52943;DHT22;38809;53.300;6.614;2023-04-29T10:37:46;13.70;99.90
52943;DHT22;38809;53.300;6.614;2023-04-29T10:40:34;14.00;99.90
52943;DHT22;38809;53.300;6.614;2023-04-29T10:43:01;14.40;99.90
52943;DHT22;38809;53.300;6.614;2023-04-29T10:45:27;14.70;99.90
52943;DHT22;38809;53.300;6.614;2023-04-29T10:53:18;14.60;99.90
52943;DHT22;38809;53.300;6.614;2023-04-29T10:55:49;14.80;99.90
52943;DHT22;38809;53.300;6.614;2023-04-29T11:01:06;14.50;99.90
52943;DHT22;38809;53.300;6.614;2023-04-29T11:03:57;14.90;99.90
52943;DHT22;38809;53.300;6.614;2023-04-29T11:06:55;14.00;99.90
52943;DHT22;38809;53.300;6.614;2023-04-29T11:09:34;13.60;99.90
52943;DHT22;38809;53.300;6.614;2023-04-29T11:12:07;13.80;99.90
52943;DHT22;38809;53.300;6.614;2023-04-29T11:19:44;14.00;99.90
52943;DHT22;38809;53.300;6.614;2023-04-29T11:22:31;14.20;99.90
52943;DHT22;38809;53.300;6.614;2023-04-29T11:25:02;13.80;99.90
52943;DHT22;38809;53.300;6.614;2023-04-29T11:27:38;13.60;99.90
52943;DHT22;38809;53.300;6.614;2023-04-29T11:30:05;14.00;99.90
52943;DHT22;38809;53.300;6.614;2023-04-29T11:32:36;13.50;99.90
52943;DHT22;38809;53.300;6.614;2023-04-29T11:37:32;13.50;99.90
52943;DHT22;38809;53.300;6.614;2023-04-29T11:39:59;13.70;99.90
52943;DHT22;38809;53.300;6.614;2023-04-29T11:42:26;13.60;99.90
52943;DHT22;38809;53.300;6.614;2023-04-29T11:44:53;14.10;99.90
52943;DHT22;38809;53.300;6.614;2023-04-29T11:47:28;13.50;99.90
52943;DHT22;38809;53.300;6.614;2023-04-29T11:50:02;14.00;99.90
52943;DHT22;38809;53.300;6.614;2023-04-29T11:52:28;14.10;99.90
52943;DHT22;38809;53.300;6.614;2023-04-29T11:54:53;13.70;99.90
52943;DHT22;38809;53.300;6.614;2023-04-29T11:57:19;13.90;99.90
52943;DHT22;38809;53.300;6.614;2023-04-29T11:59:45;14.20;99.90
52943;DHT22;38809;53.300;6.614;2023-04-29T12:02:11;14.50;99.90
52943;DHT22;38809;53.300;6.614;2023-04-29T12:04:47;14.50;99.90
52943;DHT22;38809;53.300;6.614;2023-04-29T12:07:16;14.60;99.90
52943;DHT22;38809;53.300;6.614;2023-04-29T12:09:45;13.50;99.90
52943;DHT22;38809;53.300;6.614;2023-04-29T12:12:13;13.70;99.90
52943;DHT22;38809;53.300;6.614;2023-04-29T12:14:40;13.60;99.90
52943;DHT22;38809;53.300;6.614;2023-04-29T12:17:07;13.90;99.90
52943;DHT22;38809;53.300;6.614;2023-04-29T12:19:34;13.70;99.90
52943;DHT22;38809;53.300;6.614;2023-04-29T12:22:03;14.00;99.90
52943;DHT22;38809;53.300;6.614;2023-04-29T12:24:35;14.50;99.90
52943;DHT22;38809;53.300;6.614;2023-04-29T12:27:02;13.60;99.90
52943;DHT22;38809;53.300;6.614;2023-04-29T12:29:30;14.10;99.90
52943;DHT22;38809;53.300;6.614;2023-04-29T12:31:57;14.00;99.90
52943;DHT22;38809;53.300;6.614;2023-04-29T12:34:30;13.60;99.90
52943;DHT22;38809;53.300;6.614;2023-04-29T12:36:57;13.70;99.90
52943;DHT22;38809;53.300;6.614;2023-04-29T12:39:25;13.70;99.90
52943;DHT22;38809;53.300;6.614;2023-04-29T12:41:54;14.10;99.90
52943;DHT22;38809;53.300;6.614;2023-04-29T12:44:22;14.50;99.90
52943;DHT22;38809;53.300;6.614;2023-04-29T12:46:48;14.40;99.90
52943;DHT22;38809;53.300;6.614;2023-04-29T12:49:14;14.50;99.90
52943;DHT22;38809;53.300;6.614;2023-04-29T12:51:42;14.60;99.90
52943;DHT22;38809;53.300;6.614;2023-04-29T12:54:09;14.00;99.90
52943;DHT22;38809;53.300;6.614;2023-04-29T12:56:34;13.30;99.90
52943;DHT22;38809;53.300;6.614;2023-04-29T12:59:05;14.10;99.90
52943;DHT22;38809;53.300;6.614;2023-04-29T13:01:32;14.00;99.90
52943;DHT22;38809;53.300;6.614;2023-04-29T13:03:57;14.00;99.90
52943;DHT22;38809;53.300;6.614;2023-04-29T13:06:23;14.50;99.90
52943;DHT22;38809;53.300;6.614;2023-04-29T13:08:49;14.30;99.90
52943;DHT22;38809;53.300;6.614;2023-04-29T13:11:16;14.40;99.90
52943;DHT22;38809;53.300;6.614;2023-04-29T13:13:42;14.60;99.90
52943;DHT22;38809;53.300;6.614;2023-04-29T13:16:07;14.70;99.90
52943;DHT22;38809;53.300;6.614;2023-04-29T13:18:34;14.30;99.90
52943;DHT22;38809;53.300;6.614;2023-04-29T13:21:00;13.90;99.90
52943;DHT22;38809;53.300;6.614;2023-04-29T13:23:26;13.60;99.90
52943;DHT22;38809;53.300;6.614;2023-04-29T13:25:52;13.60;99.90
52943;DHT22;38809;53.300;6.614;2023-04-29T13:28:17;13.60;99.90
52943;DHT22;38809;53.300;6.614;2023-04-29T13:30:43;13.90;99.90
52943;DHT22;38809;53.300;6.614;2023-04-29T13:33:09;13.40;99.90
52943;DHT22;38809;53.300;6.614;2023-04-29T13:35:34;12.90;99.90
52943;DHT22;38809;53.300;6.614;2023-04-29T13:38:02;13.50;99.90
52943;DHT22;38809;53.300;6.614;2023-04-29T13:40:28;13.60;99.90
52943;DHT22;38809;53.300;6.614;2023-04-29T13:42:54;13.00;99.90
52943;DHT22;38809;53.300;6.614;2023-04-29T13:45:20;13.60;99.90
52943;DHT22;38809;53.300;6.614;2023-04-29T13:47:45;13.00;99.90
52943;DHT22;38809;53.300;6.614;2023-04-29T13:50:11;12.70;99.90
52943;DHT22;38809;53.300;6.614;2023-04-29T13:52:37;13.10;99.90
52943;DHT22;38809;53.300;6.614;2023-04-29T13:55:03;13.30;99.90
52943;DHT22;38809;53.300;6.614;2023-04-29T13:57:29;13.40;99.90
52943;DHT22;38809;53.300;6.614;2023-04-29T13:59:55;13.10;99.90
52943;DHT22;38809;53.300;6.614;2023-04-29T14:02:20;13.00;99.90
52943;DHT22;38809;53.300;6.614;2023-04-29T14:04:46;13.10;99.90
52943;DHT22;38809;53.300;6.614;2023-04-29T14:07:12;13.30;99.90
52943;DHT22;38809;53.300;6.614;2023-04-29T14:09:39;13.00;99.90
52943;DHT22;38809;53.300;6.614;2023-04-29T14:12:05;13.00;99.90
52943;DHT22;38809;53.300;6.614;2023-04-29T14:14:31;13.00;99.90
52943;DHT22;38809;53.300;6.614;2023-04-29T14:16:56;12.70;99.90
52943;DHT22;38809;53.300;6.614;2023-04-29T14:19:22;12.40;99.90
52943;DHT22;38809;53.300;6.614;2023-04-29T14:21:48;12.50;99.90
52943;DHT22;38809;53.300;6.614;2023-04-29T14:24:14;12.20;99.90
52943;DHT22;38809;53.300;6.614;2023-04-29T14:26:40;12.60;99.90
52943;DHT22;38809;53.300;6.614;2023-04-29T14:29:06;12.70;99.90
52943;DHT22;38809;53.300;6.614;2023-04-29T14:31:35;12.90;99.90
52943;DHT22;38809;53.300;6.614;2023-04-29T14:34:04;13.00;99.90
52943;DHT22;38809;53.300;6.614;2023-04-29T14:36:30;12.70;99.90
52943;DHT22;38809;53.300;6.614;2023-04-29T14:38:59;12.50;99.90
52943;DHT22;38809;53.300;6.614;2023-04-29T14:41:26;12.50;99.90
52943;DHT22;38809;53.300;6.614;2023-04-29T14:43:51;12.40;99.90
52943;DHT22;38809;53.300;6.614;2023-04-29T14:46:17;12.20;99.90
52943;DHT22;38809;53.300;6.614;2023-04-29T14:48:43;12.10;99.90
52943;DHT22;38809;53.300;6.614;2023-04-29T14:51:09;12.00;99.90
52943;DHT22;38809;53.300;6.614;2023-04-29T14:53:35;12.20;99.90
52943;DHT22;38809;53.300;6.614;2023-04-29T14:56:02;12.40;99.90
52943;DHT22;38809;53.300;6.614;2023-04-29T14:58:28;12.30;99.90
52943;DHT22;38809;53.300;6.614;2023-04-29T15:00:54;12.40;99.90
52943;DHT22;38809;53.300;6.614;2023-04-29T15:03:20;12.10;99.90
52943;DHT22;38809;53.300;6.614;2023-04-29T15:05:47;12.00;99.90
52943;DHT22;38809;53.300;6.614;2023-04-29T15:08:14;12.00;99.90
52943;DHT22;38809;53.300;6.614;2023-04-29T15:10:40;12.30;99.90
52943;DHT22;38809;53.300;6.614;2023-04-29T15:13:06;12.50;99.90
52943;DHT22;38809;53.300;6.614;2023-04-29T15:15:31;12.20;99.90
52943;DHT22;38809;53.300;6.614;2023-04-29T15:17:57;12.10;99.90
52943;DHT22;38809;53.300;6.614;2023-04-29T15:20:23;12.00;99.90
52943;DHT22;38809;53.300;6.614;2023-04-29T15:22:48;12.20;99.90
52943;DHT22;38809;53.300;6.614;2023-04-29T15:25:14;12.30;99.90
52943;DHT22;38809;53.300;6.614;2023-04-29T15:27:40;12.40;99.90
52943;DHT22;38809;53.300;6.614;2023-04-29T15:30:07;12.00;99.90
52943;DHT22;38809;53.300;6.614;2023-04-29T15:32:32;11.90;99.90
52943;DHT22;38809;53.300;6.614;2023-04-29T15:35:02;11.90;99.90
52943;DHT22;38809;53.300;6.614;2023-04-29T15:37:28;12.20;99.90
52943;DHT22;38809;53.300;6.614;2023-04-29T15:39:57;12.20;99.90
52943;DHT22;38809;53.300;6.614;2023-04-29T15:42:23;11.90;99.90
52943;DHT22;38809;53.300;6.614;2023-04-29T15:44:48;11.70;99.90
52943;DHT22;38809;53.300;6.614;2023-04-29T15:47:14;11.90;99.90
52943;DHT22;38809;53.300;6.614;2023-04-29T15:49:41;12.20;99.90
52943;DHT22;38809;53.300;6.614;2023-04-29T15:52:07;12.20;99.90
52943;DHT22;38809;53.300;6.614;2023-04-29T15:54:33;12.00;99.90
52943;DHT22;38809;53.300;6.614;2023-04-29T15:56:59;11.60;99.90
52943;DHT22;38809;53.300;6.614;2023-04-29T15:59:25;12.00;99.90
52943;DHT22;38809;53.300;6.614;2023-04-29T16:01:51;11.70;99.90